sensor_id;sensor_type;location;lat;lon;timestamp;P1;durP1;ratioP1;P2;durP2;ratioP2
13651;SDS011;6899;51.546;6.912;2023-03-01T00:01:12;16.43;;;11.50;;
13651;SDS011;6899;51.546;6.912;2023-03-01T00:03:40;18.20;;;12.67;;
13651;SDS011;6899;51.546;6.912;2023-03-01T00:06:07;17.47;;;11.53;;
13651;SDS011;6899;51.546;6.912;2023-03-01T00:08:34;17.07;;;12.43;;
13651;SDS011;6899;51.546;6.912;2023-03-01T00:11:02;16.83;;;11.80;;
13651;SDS011;6899;51.546;6.912;2023-03-01T00:13:32;19.17;;;12.90;;
13651;SDS011;6899;51.546;6.912;2023-03-01T00:16:03;17.87;;;11.80;;
13651;SDS011;6899;51.546;6.912;2023-03-01T00:18:31;17.47;;;11.80;;
13651;SDS011;6899;51.546;6.912;2023-03-01T00:20:58;18.27;;;11.77;;
13651;SDS011;6899;51.546;6.912;2023-03-01T00:23:25;18.43;;;13.07;;
13651;SDS011;6899;51.546;6.912;2023-03-01T00:25:53;18.00;;;12.40;;
13651;SDS011;6899;51.546;6.912;2023-03-01T00:28:20;18.87;;;12.80;;
13651;SDS011;6899;51.546;6.912;2023-03-01T00:30:50;20.03;;;13.03;;
13651;SDS011;6899;51.546;6.912;2023-03-01T00:33:19;17.50;;;11.77;;
13651;SDS011;6899;51.546;6.912;2023-03-01T00:35:45;19.57;;;12.70;;
13651;SDS011;6899;51.546;6.912;2023-03-01T00:38:12;19.53;;;13.50;;
13651;SDS011;6899;51.546;6.912;2023-03-01T00:40:45;18.33;;;12.10;;
13651;SDS011;6899;51.546;6.912;2023-03-01T00:43:12;21.17;;;13.50;;
13651;SDS011;6899;51.546;6.912;2023-03-01T00:45:39;18.07;;;13.10;;
13651;SDS011;6899;51.546;6.912;2023-03-01T00:48:05;19.83;;;13.27;;
13651;SDS011;6899;51.546;6.912;2023-03-01T00:50:37;19.10;;;13.13;;
13651;SDS011;6899;51.546;6.912;2023-03-01T00:53:04;18.90;;;13.37;;
13651;SDS011;6899;51.546;6.912;2023-03-01T00:55:31;19.77;;;12.57;;
13651;SDS011;6899;51.546;6.912;2023-03-01T00:57:57;19.57;;;13.00;;
13651;SDS011;6899;51.546;6.912;2023-03-01T01:00:24;16.83;;;12.13;;
13651;SDS011;6899;51.546;6.912;2023-03-01T01:02:52;19.90;;;13.30;;
13651;SDS011;6899;51.546;6.912;2023-03-01T01:05:22;17.90;;;12.00;;
13651;SDS011;6899;51.546;6.912;2023-03-01T01:07:51;18.77;;;12.13;;
13651;SDS011;6899;51.546;6.912;2023-03-01T01:10:18;21.93;;;13.37;;
13651;SDS011;6899;51.546;6.912;2023-03-01T01:12:45;20.50;;;12.53;;
13651;SDS011;6899;51.546;6.912;2023-03-01T01:28:59;19.30;;;12.90;;
13651;SDS011;6899;51.546;6.912;2023-03-01T01:31:27;23.53;;;13.53;;
13651;SDS011;6899;51.546;6.912;2023-03-01T01:33:55;21.63;;;14.63;;
13651;SDS011;6899;51.546;6.912;2023-03-01T01:36:22;20.20;;;13.33;;
13651;SDS011;6899;51.546;6.912;2023-03-01T01:38:49;21.70;;;13.90;;
13651;SDS011;6899;51.546;6.912;2023-03-01T01:41:17;22.50;;;14.47;;
13651;SDS011;6899;51.546;6.912;2023-03-01T01:44:08;21.40;;;14.17;;
13651;SDS011;6899;51.546;6.912;2023-03-01T01:46:38;20.87;;;13.13;;
13651;SDS011;6899;51.546;6.912;2023-03-01T01:49:07;20.33;;;13.20;;
13651;SDS011;6899;51.546;6.912;2023-03-01T01:51:45;27.00;;;14.97;;
13651;SDS011;6899;51.546;6.912;2023-03-01T01:54:19;24.03;;;14.93;;
13651;SDS011;6899;51.546;6.912;2023-03-01T01:56:51;22.63;;;14.57;;
13651;SDS011;6899;51.546;6.912;2023-03-01T01:59:25;19.67;;;12.90;;
13651;SDS011;6899;51.546;6.912;2023-03-01T02:01:56;25.73;;;13.93;;
13651;SDS011;6899;51.546;6.912;2023-03-01T02:04:30;22.17;;;14.63;;
13651;SDS011;6899;51.546;6.912;2023-03-01T02:06:59;27.53;;;15.23;;
13651;SDS011;6899;51.546;6.912;2023-03-01T02:09:34;23.90;;;14.50;;
13651;SDS011;6899;51.546;6.912;2023-03-01T02:12:04;21.50;;;14.37;;
13651;SDS011;6899;51.546;6.912;2023-03-01T02:14:33;21.67;;;13.90;;
13651;SDS011;6899;51.546;6.912;2023-03-01T02:17:00;26.10;;;14.57;;
13651;SDS011;6899;51.546;6.912;2023-03-01T02:19:31;18.33;;;12.77;;
13651;SDS011;6899;51.546;6.912;2023-03-01T02:22:10;20.10;;;13.73;;
13651;SDS011;6899;51.546;6.912;2023-03-01T02:24:47;19.37;;;13.13;;
13651;SDS011;6899;51.546;6.912;2023-03-01T02:27:26;23.10;;;14.30;;
13651;SDS011;6899;51.546;6.912;2023-03-01T02:30:01;19.23;;;11.93;;
13651;SDS011;6899;51.546;6.912;2023-03-01T02:32:37;25.50;;;14.13;;
13651;SDS011;6899;51.546;6.912;2023-03-01T02:35:12;23.97;;;14.63;;
13651;SDS011;6899;51.546;6.912;2023-03-01T02:37:41;23.37;;;15.37;;
13651;SDS011;6899;51.546;6.912;2023-03-01T02:40:12;25.33;;;14.47;;
13651;SDS011;6899;51.546;6.912;2023-03-01T02:42:43;23.90;;;14.80;;
13651;SDS011;6899;51.546;6.912;2023-03-01T02:45:18;24.13;;;15.60;;
13651;SDS011;6899;51.546;6.912;2023-03-01T02:47:48;25.77;;;15.80;;
13651;SDS011;6899;51.546;6.912;2023-03-01T02:50:22;23.20;;;15.30;;
13651;SDS011;6899;51.546;6.912;2023-03-01T02:53:01;25.67;;;14.90;;
13651;SDS011;6899;51.546;6.912;2023-03-01T02:55:37;24.87;;;14.90;;
13651;SDS011;6899;51.546;6.912;2023-03-01T02:58:04;24.97;;;15.50;;
13651;SDS011;6899;51.546;6.912;2023-03-01T03:00:34;22.70;;;14.00;;
13651;SDS011;6899;51.546;6.912;2023-03-01T03:03:05;20.87;;;13.50;;
13651;SDS011;6899;51.546;6.912;2023-03-01T03:05:35;25.27;;;14.67;;
13651;SDS011;6899;51.546;6.912;2023-03-01T03:08:03;21.27;;;14.37;;
13651;SDS011;6899;51.546;6.912;2023-03-01T03:10:33;19.60;;;12.90;;
13651;SDS011;6899;51.546;6.912;2023-03-01T03:13:13;24.00;;;13.47;;
13651;SDS011;6899;51.546;6.912;2023-03-01T03:15:43;23.20;;;13.63;;
13651;SDS011;6899;51.546;6.912;2023-03-01T03:18:11;20.17;;;12.40;;
13651;SDS011;6899;51.546;6.912;2023-03-01T03:20:41;20.57;;;13.00;;
13651;SDS011;6899;51.546;6.912;2023-03-01T03:23:11;24.27;;;14.70;;
13651;SDS011;6899;51.546;6.912;2023-03-01T03:25:47;25.43;;;14.53;;
13651;SDS011;6899;51.546;6.912;2023-03-01T03:28:21;22.77;;;13.23;;
13651;SDS011;6899;51.546;6.912;2023-03-01T03:31:05;26.33;;;14.67;;
13651;SDS011;6899;51.546;6.912;2023-03-01T03:33:42;21.00;;;13.43;;
13651;SDS011;6899;51.546;6.912;2023-03-01T03:36:13;23.03;;;14.33;;
13651;SDS011;6899;51.546;6.912;2023-03-01T03:38:43;28.10;;;15.67;;
13651;SDS011;6899;51.546;6.912;2023-03-01T03:41:25;26.77;;;15.70;;
13651;SDS011;6899;51.546;6.912;2023-03-01T03:43:52;25.33;;;14.80;;
13651;SDS011;6899;51.546;6.912;2023-03-01T03:46:21;28.90;;;15.77;;
13651;SDS011;6899;51.546;6.912;2023-03-01T03:48:49;24.10;;;15.73;;
13651;SDS011;6899;51.546;6.912;2023-03-01T03:51:18;24.83;;;14.23;;
13651;SDS011;6899;51.546;6.912;2023-03-01T03:53:47;24.97;;;15.73;;
13651;SDS011;6899;51.546;6.912;2023-03-01T03:56:18;30.13;;;15.83;;
13651;SDS011;6899;51.546;6.912;2023-03-01T03:58:46;24.77;;;15.10;;
13651;SDS011;6899;51.546;6.912;2023-03-01T04:01:17;22.87;;;14.33;;
13651;SDS011;6899;51.546;6.912;2023-03-01T04:03:46;26.47;;;16.03;;
13651;SDS011;6899;51.546;6.912;2023-03-01T04:06:19;29.80;;;17.27;;
13651;SDS011;6899;51.546;6.912;2023-03-01T04:08:48;25.23;;;15.37;;
13651;SDS011;6899;51.546;6.912;2023-03-01T04:11:23;22.83;;;14.03;;
13651;SDS011;6899;51.546;6.912;2023-03-01T04:13:54;25.03;;;14.97;;
13651;SDS011;6899;51.546;6.912;2023-03-01T04:16:22;22.50;;;14.30;;
13651;SDS011;6899;51.546;6.912;2023-03-01T04:18:51;29.47;;;16.47;;
13651;SDS011;6899;51.546;6.912;2023-03-01T04:21:20;29.73;;;16.47;;
13651;SDS011;6899;51.546;6.912;2023-03-01T04:23:47;26.27;;;15.50;;
13651;SDS011;6899;51.546;6.912;2023-03-01T04:26:17;27.70;;;15.90;;
13651;SDS011;6899;51.546;6.912;2023-03-01T04:28:45;26.70;;;16.53;;
13651;SDS011;6899;51.546;6.912;2023-03-01T04:31:15;25.40;;;16.07;;
13651;SDS011;6899;51.546;6.912;2023-03-01T04:33:46;25.97;;;16.30;;
13651;SDS011;6899;51.546;6.912;2023-03-01T04:36:17;26.33;;;15.67;;
13651;SDS011;6899;51.546;6.912;2023-03-01T04:38:52;30.73;;;17.17;;
13651;SDS011;6899;51.546;6.912;2023-03-01T04:41:20;26.53;;;16.00;;
13651;SDS011;6899;51.546;6.912;2023-03-01T04:43:49;25.60;;;15.40;;
13651;SDS011;6899;51.546;6.912;2023-03-01T04:46:21;24.90;;;15.87;;
13651;SDS011;6899;51.546;6.912;2023-03-01T04:48:51;26.80;;;16.20;;
13651;SDS011;6899;51.546;6.912;2023-03-01T04:51:19;29.47;;;16.50;;
13651;SDS011;6899;51.546;6.912;2023-03-01T04:53:46;28.37;;;16.50;;
13651;SDS011;6899;51.546;6.912;2023-03-01T04:56:14;29.67;;;16.40;;
13651;SDS011;6899;51.546;6.912;2023-03-01T04:58:43;28.00;;;16.17;;
13651;SDS011;6899;51.546;6.912;2023-03-01T05:01:11;27.23;;;15.53;;
13651;SDS011;6899;51.546;6.912;2023-03-01T05:03:41;29.57;;;15.97;;
13651;SDS011;6899;51.546;6.912;2023-03-01T05:06:12;27.80;;;16.30;;
13651;SDS011;6899;51.546;6.912;2023-03-01T05:11:51;25.53;;;15.07;;
13651;SDS011;6899;51.546;6.912;2023-03-01T05:14:41;28.50;;;15.63;;
13651;SDS011;6899;51.546;6.912;2023-03-01T05:17:12;28.47;;;16.17;;
13651;SDS011;6899;51.546;6.912;2023-03-01T05:19:56;28.90;;;15.90;;
13651;SDS011;6899;51.546;6.912;2023-03-01T05:22:38;26.77;;;16.07;;
13651;SDS011;6899;51.546;6.912;2023-03-01T05:25:15;27.10;;;15.77;;
13651;SDS011;6899;51.546;6.912;2023-03-01T05:27:46;26.37;;;16.30;;
13651;SDS011;6899;51.546;6.912;2023-03-01T05:30:22;25.63;;;15.30;;
13651;SDS011;6899;51.546;6.912;2023-03-01T05:32:52;25.57;;;16.27;;
13651;SDS011;6899;51.546;6.912;2023-03-01T05:35:33;24.87;;;15.90;;
13651;SDS011;6899;51.546;6.912;2023-03-01T05:38:03;26.40;;;15.73;;
13651;SDS011;6899;51.546;6.912;2023-03-01T05:46:52;23.97;;;14.23;;
13651;SDS011;6899;51.546;6.912;2023-03-01T05:52:56;27.70;;;15.03;;
13651;SDS011;6899;51.546;6.912;2023-03-01T05:58:22;25.40;;;14.93;;
13651;SDS011;6899;51.546;6.912;2023-03-01T06:00:54;25.97;;;14.60;;
13651;SDS011;6899;51.546;6.912;2023-03-01T06:03:25;25.43;;;13.97;;
13651;SDS011;6899;51.546;6.912;2023-03-01T06:06:04;22.53;;;13.83;;
13651;SDS011;6899;51.546;6.912;2023-03-01T06:08:31;20.97;;;14.30;;
13651;SDS011;6899;51.546;6.912;2023-03-01T06:11:05;23.00;;;14.73;;
13651;SDS011;6899;51.546;6.912;2023-03-01T06:13:42;24.10;;;13.93;;
13651;SDS011;6899;51.546;6.912;2023-03-01T06:16:11;22.53;;;13.73;;
13651;SDS011;6899;51.546;6.912;2023-03-01T06:18:50;23.90;;;13.97;;
13651;SDS011;6899;51.546;6.912;2023-03-01T06:21:23;23.20;;;14.07;;
13651;SDS011;6899;51.546;6.912;2023-03-01T06:23:50;24.07;;;13.80;;
13651;SDS011;6899;51.546;6.912;2023-03-01T06:26:18;23.80;;;13.97;;
13651;SDS011;6899;51.546;6.912;2023-03-01T06:28:54;23.07;;;13.90;;
13651;SDS011;6899;51.546;6.912;2023-03-01T06:31:25;24.93;;;15.97;;
13651;SDS011;6899;51.546;6.912;2023-03-01T06:33:51;24.90;;;14.97;;
13651;SDS011;6899;51.546;6.912;2023-03-01T06:36:18;27.67;;;16.07;;
13651;SDS011;6899;51.546;6.912;2023-03-01T06:38:46;28.07;;;16.50;;
13651;SDS011;6899;51.546;6.912;2023-03-01T06:41:13;23.67;;;15.27;;
13651;SDS011;6899;51.546;6.912;2023-03-01T06:43:40;28.90;;;15.83;;
13651;SDS011;6899;51.546;6.912;2023-03-01T06:46:07;24.07;;;15.40;;
13651;SDS011;6899;51.546;6.912;2023-03-01T06:48:35;27.20;;;15.77;;
13651;SDS011;6899;51.546;6.912;2023-03-01T06:51:02;30.83;;;16.07;;
13651;SDS011;6899;51.546;6.912;2023-03-01T06:53:29;34.27;;;16.53;;
13651;SDS011;6899;51.546;6.912;2023-03-01T06:55:56;24.00;;;15.67;;
13651;SDS011;6899;51.546;6.912;2023-03-01T06:58:25;25.10;;;16.37;;
13651;SDS011;6899;51.546;6.912;2023-03-01T07:00:52;30.83;;;18.23;;
13651;SDS011;6899;51.546;6.912;2023-03-01T07:03:18;29.43;;;18.20;;
13651;SDS011;6899;51.546;6.912;2023-03-01T07:05:47;24.20;;;15.50;;
13651;SDS011;6899;51.546;6.912;2023-03-01T07:08:16;31.77;;;17.43;;
13651;SDS011;6899;51.546;6.912;2023-03-01T07:10:44;50.90;;;25.40;;
13651;SDS011;6899;51.546;6.912;2023-03-01T07:13:10;48.80;;;24.00;;
13651;SDS011;6899;51.546;6.912;2023-03-01T07:15:39;35.17;;;20.70;;
13651;SDS011;6899;51.546;6.912;2023-03-01T07:18:06;28.73;;;17.97;;
13651;SDS011;6899;51.546;6.912;2023-03-01T07:20:33;28.60;;;17.70;;
13651;SDS011;6899;51.546;6.912;2023-03-01T07:23:02;25.03;;;16.30;;
13651;SDS011;6899;51.546;6.912;2023-03-01T07:25:28;22.90;;;15.97;;
13651;SDS011;6899;51.546;6.912;2023-03-01T07:27:55;28.77;;;18.03;;
13651;SDS011;6899;51.546;6.912;2023-03-01T07:30:22;28.60;;;16.50;;
13651;SDS011;6899;51.546;6.912;2023-03-01T07:32:51;30.13;;;17.20;;
13651;SDS011;6899;51.546;6.912;2023-03-01T07:35:18;28.67;;;16.40;;
13651;SDS011;6899;51.546;6.912;2023-03-01T07:37:44;23.83;;;15.77;;
13651;SDS011;6899;51.546;6.912;2023-03-01T07:40:13;27.20;;;15.93;;
13651;SDS011;6899;51.546;6.912;2023-03-01T07:42:40;26.17;;;16.73;;
13651;SDS011;6899;51.546;6.912;2023-03-01T07:45:07;26.83;;;15.90;;
13651;SDS011;6899;51.546;6.912;2023-03-01T07:47:34;22.90;;;14.57;;
13651;SDS011;6899;51.546;6.912;2023-03-01T07:50:01;22.03;;;14.23;;
13651;SDS011;6899;51.546;6.912;2023-03-01T07:52:28;22.17;;;15.10;;
13651;SDS011;6899;51.546;6.912;2023-03-01T07:54:56;24.20;;;14.33;;
13651;SDS011;6899;51.546;6.912;2023-03-01T07:57:24;19.90;;;13.20;;
13651;SDS011;6899;51.546;6.912;2023-03-01T07:59:51;20.27;;;13.77;;
13651;SDS011;6899;51.546;6.912;2023-03-01T08:02:18;21.60;;;12.43;;
13651;SDS011;6899;51.546;6.912;2023-03-01T08:04:45;21.47;;;12.77;;
13651;SDS011;6899;51.546;6.912;2023-03-01T08:07:11;17.37;;;12.13;;
13651;SDS011;6899;51.546;6.912;2023-03-01T08:09:38;18.03;;;11.43;;
13651;SDS011;6899;51.546;6.912;2023-03-01T08:12:05;17.00;;;11.70;;
13651;SDS011;6899;51.546;6.912;2023-03-01T08:14:34;19.20;;;12.23;;
13651;SDS011;6899;51.546;6.912;2023-03-01T08:17:01;16.03;;;10.70;;
13651;SDS011;6899;51.546;6.912;2023-03-01T08:19:29;15.50;;;10.63;;
13651;SDS011;6899;51.546;6.912;2023-03-01T08:21:56;17.53;;;10.10;;
13651;SDS011;6899;51.546;6.912;2023-03-01T08:24:24;13.47;;;9.63;;
13651;SDS011;6899;51.546;6.912;2023-03-01T08:26:51;15.67;;;10.37;;
13651;SDS011;6899;51.546;6.912;2023-03-01T08:29:18;14.07;;;10.00;;
13651;SDS011;6899;51.546;6.912;2023-03-01T08:31:47;15.13;;;10.53;;
13651;SDS011;6899;51.546;6.912;2023-03-01T08:34:16;15.37;;;10.63;;
13651;SDS011;6899;51.546;6.912;2023-03-01T08:36:44;12.53;;;9.00;;
13651;SDS011;6899;51.546;6.912;2023-03-01T08:39:12;14.60;;;9.77;;
13651;SDS011;6899;51.546;6.912;2023-03-01T08:41:40;17.23;;;9.47;;
13651;SDS011;6899;51.546;6.912;2023-03-01T08:44:07;15.70;;;10.03;;
13651;SDS011;6899;51.546;6.912;2023-03-01T08:46:37;14.73;;;10.47;;
13651;SDS011;6899;51.546;6.912;2023-03-01T08:49:07;12.67;;;9.23;;
13651;SDS011;6899;51.546;6.912;2023-03-01T08:51:34;11.47;;;8.67;;
13651;SDS011;6899;51.546;6.912;2023-03-01T08:54:02;11.60;;;8.60;;
13651;SDS011;6899;51.546;6.912;2023-03-01T08:56:29;11.23;;;8.27;;
13651;SDS011;6899;51.546;6.912;2023-03-01T08:58:56;14.20;;;9.27;;
13651;SDS011;6899;51.546;6.912;2023-03-01T09:01:23;12.07;;;9.00;;
13651;SDS011;6899;51.546;6.912;2023-03-01T09:03:50;12.27;;;9.27;;
13651;SDS011;6899;51.546;6.912;2023-03-01T09:06:18;12.30;;;9.23;;
13651;SDS011;6899;51.546;6.912;2023-03-01T09:08:45;11.37;;;8.80;;
13651;SDS011;6899;51.546;6.912;2023-03-01T09:11:14;17.20;;;9.90;;
13651;SDS011;6899;51.546;6.912;2023-03-01T09:13:42;15.18;;;9.65;;
13651;SDS011;6899;51.546;6.912;2023-03-01T09:16:10;16.83;;;10.47;;
13651;SDS011;6899;51.546;6.912;2023-03-01T09:18:38;15.33;;;10.33;;
13651;SDS011;6899;51.546;6.912;2023-03-01T09:21:08;12.35;;;9.63;;
13651;SDS011;6899;51.546;6.912;2023-03-01T09:23:37;13.03;;;9.33;;
13651;SDS011;6899;51.546;6.912;2023-03-01T09:26:05;15.27;;;9.27;;
13651;SDS011;6899;51.546;6.912;2023-03-01T09:28:33;11.13;;;8.57;;
13651;SDS011;6899;51.546;6.912;2023-03-01T09:31:01;17.92;;;9.70;;
13651;SDS011;6899;51.546;6.912;2023-03-01T09:33:28;12.50;;;8.83;;
13651;SDS011;6899;51.546;6.912;2023-03-01T09:35:56;10.98;;;8.90;;
13651;SDS011;6899;51.546;6.912;2023-03-01T09:38:23;12.43;;;8.55;;
13651;SDS011;6899;51.546;6.912;2023-03-01T09:40:51;13.48;;;8.55;;
13651;SDS011;6899;51.546;6.912;2023-03-01T09:43:20;9.45;;;7.95;;
13651;SDS011;6899;51.546;6.912;2023-03-01T09:45:52;13.18;;;8.73;;
13651;SDS011;6899;51.546;6.912;2023-03-01T09:48:21;10.48;;;8.00;;
13651;SDS011;6899;51.546;6.912;2023-03-01T09:50:52;12.10;;;7.83;;
13651;SDS011;6899;51.546;6.912;2023-03-01T09:53:20;11.93;;;7.25;;
13651;SDS011;6899;51.546;6.912;2023-03-01T09:55:50;12.70;;;8.18;;
13651;SDS011;6899;51.546;6.912;2023-03-01T09:58:29;10.27;;;8.25;;
13651;SDS011;6899;51.546;6.912;2023-03-01T10:01:18;10.75;;;7.88;;
13651;SDS011;6899;51.546;6.912;2023-03-01T10:04:04;11.55;;;8.05;;
13651;SDS011;6899;51.546;6.912;2023-03-01T10:06:54;9.82;;;7.82;;
13651;SDS011;6899;51.546;6.912;2023-03-01T10:09:32;10.18;;;7.82;;
13651;SDS011;6899;51.546;6.912;2023-03-01T10:12:02;11.55;;;7.70;;
13651;SDS011;6899;51.546;6.912;2023-03-01T10:14:35;9.13;;;6.93;;
13651;SDS011;6899;51.546;6.912;2023-03-01T10:17:07;13.20;;;9.15;;
13651;SDS011;6899;51.546;6.912;2023-03-01T10:19:39;11.85;;;7.78;;
13651;SDS011;6899;51.546;6.912;2023-03-01T10:22:10;12.00;;;9.05;;
13651;SDS011;6899;51.546;6.912;2023-03-01T10:24:44;10.90;;;7.63;;
13651;SDS011;6899;51.546;6.912;2023-03-01T10:27:19;14.27;;;8.90;;
13651;SDS011;6899;51.546;6.912;2023-03-01T10:29:51;9.75;;;7.65;;
13651;SDS011;6899;51.546;6.912;2023-03-01T10:32:24;10.45;;;7.40;;
13651;SDS011;6899;51.546;6.912;2023-03-01T10:34:55;10.40;;;7.22;;
13651;SDS011;6899;51.546;6.912;2023-03-01T10:37:22;10.05;;;7.20;;
13651;SDS011;6899;51.546;6.912;2023-03-01T10:39:55;10.82;;;7.28;;
13651;SDS011;6899;51.546;6.912;2023-03-01T10:42:27;9.85;;;6.65;;
13651;SDS011;6899;51.546;6.912;2023-03-01T10:44:56;10.48;;;7.30;;
13651;SDS011;6899;51.546;6.912;2023-03-01T10:47:24;11.82;;;8.63;;
13651;SDS011;6899;51.546;6.912;2023-03-01T10:49:56;9.43;;;6.68;;
13651;SDS011;6899;51.546;6.912;2023-03-01T10:52:26;11.85;;;7.80;;
13651;SDS011;6899;51.546;6.912;2023-03-01T10:54:56;12.90;;;7.60;;
13651;SDS011;6899;51.546;6.912;2023-03-01T10:57:31;9.32;;;7.38;;
13651;SDS011;6899;51.546;6.912;2023-03-01T11:03:03;12.75;;;7.20;;
13651;SDS011;6899;51.546;6.912;2023-03-01T11:05:37;12.75;;;7.32;;
13651;SDS011;6899;51.546;6.912;2023-03-01T11:08:31;9.60;;;6.80;;
13651;SDS011;6899;51.546;6.912;2023-03-01T11:11:04;10.45;;;7.25;;
13651;SDS011;6899;51.546;6.912;2023-03-01T11:13:35;11.32;;;7.65;;
13651;SDS011;6899;51.546;6.912;2023-03-01T11:16:17;13.93;;;7.53;;
13651;SDS011;6899;51.546;6.912;2023-03-01T11:18:56;10.18;;;6.57;;
13651;SDS011;6899;51.546;6.912;2023-03-01T11:21:24;12.68;;;7.43;;
13651;SDS011;6899;51.546;6.912;2023-03-01T11:23:55;11.32;;;7.50;;
13651;SDS011;6899;51.546;6.912;2023-03-01T11:26:26;11.75;;;7.22;;
13651;SDS011;6899;51.546;6.912;2023-03-01T11:29:00;11.77;;;7.25;;
13651;SDS011;6899;51.546;6.912;2023-03-01T11:31:31;11.52;;;7.95;;
13651;SDS011;6899;51.546;6.912;2023-03-01T11:34:01;10.13;;;7.20;;
13651;SDS011;6899;51.546;6.912;2023-03-01T11:36:35;10.02;;;7.38;;
13651;SDS011;6899;51.546;6.912;2023-03-01T11:39:12;10.07;;;7.35;;
13651;SDS011;6899;51.546;6.912;2023-03-01T11:41:45;11.13;;;7.28;;
13651;SDS011;6899;51.546;6.912;2023-03-01T11:44:23;8.68;;;6.45;;
13651;SDS011;6899;51.546;6.912;2023-03-01T11:49:57;9.18;;;6.45;;
13651;SDS011;6899;51.546;6.912;2023-03-01T11:52:37;9.27;;;6.85;;
13651;SDS011;6899;51.546;6.912;2023-03-01T11:55:19;11.00;;;6.70;;
13651;SDS011;6899;51.546;6.912;2023-03-01T12:00:48;10.77;;;6.45;;
13651;SDS011;6899;51.546;6.912;2023-03-01T12:03:42;10.48;;;6.97;;
13651;SDS011;6899;51.546;6.912;2023-03-01T12:09:25;9.93;;;6.65;;
13651;SDS011;6899;51.546;6.912;2023-03-01T12:14:59;10.20;;;6.95;;
13651;SDS011;6899;51.546;6.912;2023-03-01T12:17:54;10.73;;;7.07;;
13651;SDS011;6899;51.546;6.912;2023-03-01T12:20:36;11.50;;;7.50;;
13651;SDS011;6899;51.546;6.912;2023-03-01T12:26:24;9.70;;;6.90;;
13651;SDS011;6899;51.546;6.912;2023-03-01T12:29:09;10.38;;;7.57;;
13651;SDS011;6899;51.546;6.912;2023-03-01T12:32:02;8.80;;;6.47;;
13651;SDS011;6899;51.546;6.912;2023-03-01T12:37:35;8.70;;;6.97;;
13651;SDS011;6899;51.546;6.912;2023-03-01T12:40:21;8.98;;;6.50;;
13651;SDS011;6899;51.546;6.912;2023-03-01T12:43:15;11.52;;;6.13;;
13651;SDS011;6899;51.546;6.912;2023-03-01T12:46:09;10.00;;;7.32;;
13651;SDS011;6899;51.546;6.912;2023-03-01T12:48:46;13.00;;;7.00;;
13651;SDS011;6899;51.546;6.912;2023-03-01T12:51:22;9.80;;;7.25;;
13651;SDS011;6899;51.546;6.912;2023-03-01T12:53:51;7.70;;;6.28;;
13651;SDS011;6899;51.546;6.912;2023-03-01T12:56:21;8.00;;;6.15;;
13651;SDS011;6899;51.546;6.912;2023-03-01T12:58:51;8.73;;;6.22;;
13651;SDS011;6899;51.546;6.912;2023-03-01T13:01:31;7.68;;;6.07;;
13651;SDS011;6899;51.546;6.912;2023-03-01T13:04:06;10.23;;;6.65;;
13651;SDS011;6899;51.546;6.912;2023-03-01T13:06:43;8.75;;;6.15;;
13651;SDS011;6899;51.546;6.912;2023-03-01T13:09:19;10.68;;;6.30;;
13651;SDS011;6899;51.546;6.912;2023-03-01T13:11:51;8.65;;;6.05;;
13651;SDS011;6899;51.546;6.912;2023-03-01T13:17:04;9.15;;;6.70;;
13651;SDS011;6899;51.546;6.912;2023-03-01T13:19:55;9.45;;;6.38;;
13651;SDS011;6899;51.546;6.912;2023-03-01T13:22:28;10.93;;;6.80;;
13651;SDS011;6899;51.546;6.912;2023-03-01T13:25:01;8.80;;;6.93;;
13651;SDS011;6899;51.546;6.912;2023-03-01T13:27:29;10.43;;;6.70;;
13651;SDS011;6899;51.546;6.912;2023-03-01T13:29:59;8.57;;;6.45;;
13651;SDS011;6899;51.546;6.912;2023-03-01T13:32:29;9.45;;;6.70;;
13651;SDS011;6899;51.546;6.912;2023-03-01T13:34:58;9.13;;;6.35;;
13651;SDS011;6899;51.546;6.912;2023-03-01T13:37:28;10.63;;;7.18;;
13651;SDS011;6899;51.546;6.912;2023-03-01T13:39:58;10.82;;;7.25;;
13651;SDS011;6899;51.546;6.912;2023-03-01T13:42:40;10.38;;;6.90;;
13651;SDS011;6899;51.546;6.912;2023-03-01T13:45:16;10.02;;;6.95;;
13651;SDS011;6899;51.546;6.912;2023-03-01T13:47:46;9.90;;;6.38;;
13651;SDS011;6899;51.546;6.912;2023-03-01T13:50:18;9.93;;;6.43;;
13651;SDS011;6899;51.546;6.912;2023-03-01T13:52:50;9.30;;;7.15;;
13651;SDS011;6899;51.546;6.912;2023-03-01T13:55:20;8.88;;;6.82;;
13651;SDS011;6899;51.546;6.912;2023-03-01T13:57:51;11.63;;;7.22;;
13651;SDS011;6899;51.546;6.912;2023-03-01T14:00:26;11.10;;;6.72;;
13651;SDS011;6899;51.546;6.912;2023-03-01T14:03:02;13.95;;;7.93;;
13651;SDS011;6899;51.546;6.912;2023-03-01T14:05:35;10.90;;;6.93;;
13651;SDS011;6899;51.546;6.912;2023-03-01T14:08:04;12.98;;;7.35;;
13651;SDS011;6899;51.546;6.912;2023-03-01T14:10:44;10.70;;;7.15;;
13651;SDS011;6899;51.546;6.912;2023-03-01T14:13:25;13.98;;;8.68;;
13651;SDS011;6899;51.546;6.912;2023-03-01T14:16:08;11.48;;;8.02;;
13651;SDS011;6899;51.546;6.912;2023-03-01T14:18:47;9.77;;;7.85;;
13651;SDS011;6899;51.546;6.912;2023-03-01T14:21:22;11.52;;;8.02;;
13651;SDS011;6899;51.546;6.912;2023-03-01T14:23:52;14.13;;;9.57;;
13651;SDS011;6899;51.546;6.912;2023-03-01T14:26:20;9.88;;;7.00;;
13651;SDS011;6899;51.546;6.912;2023-03-01T14:28:48;12.90;;;7.75;;
13651;SDS011;6899;51.546;6.912;2023-03-01T14:31:31;9.23;;;7.40;;
13651;SDS011;6899;51.546;6.912;2023-03-01T14:34:01;12.45;;;8.57;;
13651;SDS011;6899;51.546;6.912;2023-03-01T14:36:29;13.30;;;7.47;;
13651;SDS011;6899;51.546;6.912;2023-03-01T14:38:58;9.70;;;8.23;;
13651;SDS011;6899;51.546;6.912;2023-03-01T14:41:31;12.23;;;8.70;;
13651;SDS011;6899;51.546;6.912;2023-03-01T14:44:01;14.30;;;9.00;;
13651;SDS011;6899;51.546;6.912;2023-03-01T14:46:31;10.00;;;7.70;;
13651;SDS011;6899;51.546;6.912;2023-03-01T14:49:02;13.98;;;8.45;;
13651;SDS011;6899;51.546;6.912;2023-03-01T14:51:34;10.98;;;8.10;;
13651;SDS011;6899;51.546;6.912;2023-03-01T14:54:04;12.43;;;7.50;;
13651;SDS011;6899;51.546;6.912;2023-03-01T14:56:43;12.27;;;7.55;;
13651;SDS011;6899;51.546;6.912;2023-03-01T14:59:10;10.23;;;8.10;;
13651;SDS011;6899;51.546;6.912;2023-03-01T15:01:38;12.32;;;7.45;;
13651;SDS011;6899;51.546;6.912;2023-03-01T15:04:06;10.13;;;7.45;;
13651;SDS011;6899;51.546;6.912;2023-03-01T15:06:37;9.05;;;7.03;;
13651;SDS011;6899;51.546;6.912;2023-03-01T15:09:05;11.93;;;7.38;;
13651;SDS011;6899;51.546;6.912;2023-03-01T15:11:35;12.00;;;7.82;;
13651;SDS011;6899;51.546;6.912;2023-03-01T15:17:19;12.32;;;7.70;;
13651;SDS011;6899;51.546;6.912;2023-03-01T15:19:52;9.27;;;6.78;;
13651;SDS011;6899;51.546;6.912;2023-03-01T15:22:19;10.55;;;7.22;;
13651;SDS011;6899;51.546;6.912;2023-03-01T15:24:51;13.77;;;7.22;;
13651;SDS011;6899;51.546;6.912;2023-03-01T15:27:19;10.82;;;7.70;;
13651;SDS011;6899;51.546;6.912;2023-03-01T15:29:48;9.57;;;7.18;;
13651;SDS011;6899;51.546;6.912;2023-03-01T15:32:26;10.38;;;7.22;;
13651;SDS011;6899;51.546;6.912;2023-03-01T15:40:54;9.80;;;7.07;;
13651;SDS011;6899;51.546;6.912;2023-03-01T15:43:38;10.77;;;7.53;;
13651;SDS011;6899;51.546;6.912;2023-03-01T15:46:24;11.13;;;7.10;;
13651;SDS011;6899;51.546;6.912;2023-03-01T15:48:54;12.20;;;7.00;;
13651;SDS011;6899;51.546;6.912;2023-03-01T15:51:29;11.98;;;7.82;;
13651;SDS011;6899;51.546;6.912;2023-03-01T15:54:02;10.88;;;7.68;;
13651;SDS011;6899;51.546;6.912;2023-03-01T15:56:40;10.88;;;7.57;;
13651;SDS011;6899;51.546;6.912;2023-03-01T15:59:11;12.95;;;7.25;;
13651;SDS011;6899;51.546;6.912;2023-03-01T16:01:39;12.40;;;7.35;;
13651;SDS011;6899;51.546;6.912;2023-03-01T16:04:09;13.00;;;8.40;;
13651;SDS011;6899;51.546;6.912;2023-03-01T16:06:39;13.43;;;7.93;;
13651;SDS011;6899;51.546;6.912;2023-03-01T16:09:06;11.55;;;7.80;;
13651;SDS011;6899;51.546;6.912;2023-03-01T16:11:34;12.95;;;8.25;;